TAF

Looking Back 6 Hours

Worst Weather Category
LocationTimeVisiblityCeilingWeatherWind SpeedWind Gust
KPBF221401Z4800Light Showers WNW 8WNW 15
KPBF221120Z4800Light Showers WNW 8WNW 15
KPBF221002Z52000Light Showers NA 15WNW 15

  • TAFPBF TAF AMD KPBF 221401Z 2214/2312 VRB06KT P6SM BKN030 OVC050
          TEMPO 2214/2216 4SM -SHRA BKN008
          FM221600 30008G15KT P6SM VCSH BKN020 OVC035
          FM222100 28008G15KT P6SM BKN035 OVC050
          FM230300 28008KT P6SM VCFG BKN020 OVC035 =

  • TAFPBF TAF KPBF 221120Z 2212/2312 VRB06KT P6SM VCTS BKN015 OVC035CB
          TEMPO 2212/2216 4SM -SHRA BKN008 OVC015
          FM221600 30008G15KT P6SM VCSH BKN020 OVC035
          FM222100 28008G15KT P6SM BKN035 OVC050
          FM230300 28008KT P6SM VCFG BKN020 OVC035 =

  • TAFPBF TAF AMD KPBF 221002Z 2210/2306 VRB06KT P6SM VCSH SCT020 OVC050
          TEMPO 2210/2212 10015KT 5SM -SHRA BR BKN025
          FM221200 06008KT 5SM -RA BR VCTS OVC020CB
          FM221800 29008G15KT P6SM VCSH BKN020 OVC035 =